This is the latest recevied weather packets stored in our database for station/object KC3VCX. If no packets are shown the sender has not sent any weather packets the latest 10 day(s).
| Time | Temp. | Humidity | Pressure | Rain* | Wind** | Luminosity | Snow |
|---|---|---|---|---|---|---|---|
| 1777829477 | 11.67° C | 42% | 1018.3 hPa | 0 mm | - | 174 W/m² | - |
| 1777829174 | 12.78° C | 40% | 1018.2 hPa | 0 mm | - | 271 W/m² | - |
| 1777828872 | 11.67° C | 45% | 1018.2 hPa | 0 mm | - | 972 W/m² | - |
| 1777828568 | 12.22° C | 41% | 1018.2 hPa | 0 mm | - | 937 W/m² | - |
| 1777828265 | 11.67° C | 43% | 1018.4 hPa | 0 mm | - | 904 W/m² | - |
| 1777827961 | 11.11° C | 43% | 1018.4 hPa | 0 mm | - | 362 W/m² | - |
| 1777827659 | 11.67° C | 43% | 1018.3 hPa | 0 mm | - | 907 W/m² | - |
| 1777827356 | 11.67° C | 41% | 1018.4 hPa | 0 mm | - | 256 W/m² | - |
| 1777827052 | 11.67° C | 41% | 1018.4 hPa | 0 mm | - | 399 W/m² | - |
| 1777826749 | 11.11° C | 43% | 1018.5 hPa | 0 mm | - | 875 W/m² | - |
| 1777826446 | 11.67° C | 43% | 1018.5 hPa | 0 mm | - | 845 W/m² | - |
| 1777826143 | 11.67° C | 42% | 1018.7 hPa | 0 mm | - | 857 W/m² | - |
| 1777825840 | 11.11° C | 41% | 1018.7 hPa | 0 mm | - | 839 W/m² | - |
| 1777825537 | 11.11° C | 42% | 1018.7 hPa | 0 mm | - | 813 W/m² | - |
| 1777825235 | 11.11° C | 45% | 1018.7 hPa | 0 mm | - | 797 W/m² | - |
| 1777824932 | 11.67° C | 40% | 1018.6 hPa | 0 mm | - | 791 W/m² | - |
| 1777824628 | 10.56° C | 44% | 1018.9 hPa | 0 mm | - | 789 W/m² | - |
| 1777824325 | 10.56° C | 43% | 1018.8 hPa | 0 mm | - | 776 W/m² | - |
| 1777824021 | 11.11° C | 42% | 1018.8 hPa | 0 mm | - | 769 W/m² | - |
| 1777823717 | 11.11° C | 45% | 1018.9 hPa | 0 mm | - | 763 W/m² | - |
| 1777823414 | 10.56° C | 48% | 1018.9 hPa | 0 mm | - | 756 W/m² | - |
| 1777823112 | 10° C | 45% | 1019.2 hPa | 0 mm | - | 751 W/m² | - |
| 1777822809 | 10° C | 47% | 1019.1 hPa | 0 mm | - | 741 W/m² | - |
| 1777822507 | 10.56° C | 45% | 1019.1 hPa | 0 mm | - | 735 W/m² | - |
| 1777822204 | 10° C | 48% | 1019.2 hPa | 0 mm | - | 724 W/m² | - |
* Rain latest hour (hover to see other rain measurements)
** Current wind speed in m/s (hover to see current wind gust speed)